Time;durP1;ratioP1;P1;durP2;ratioP2;P2;SDS_P1;SDS_P2;PMS_P1;PMS_P2;Temp;Humidity;BMP_temperature;BMP_pressure;BME280_temperature;BME280_humidity;BME280_pressure;Samples;Min_cycle;Max_cycle;Signal;HPM_P1;HPM_P2
2021/11/02 00:00:27;;;;;;;0.10;0.10;;;;;;;9.48;68.10;99949.28;5077630;28;20538;-83
2021/11/02 00:02:53;;;;;;;0.10;0.10;;;;;;;9.45;68.55;99950.25;5067249;28;20048;-82
2021/11/02 00:05:21;;;;;;;0.10;0.10;;;;;;;9.49;68.03;99945.75;5067049;28;20105;-86
2021/11/02 00:07:48;;;;;;;0.28;0.28;;;;;;;9.48;68.10;99944.91;5069324;28;21395;-87
2021/11/02 00:10:14;;;;;;;0.10;0.10;;;;;;;9.47;68.52;99937.88;5067313;28;20033;-87
2021/11/02 00:12:41;;;;;;;0.20;0.20;;;;;;;9.44;68.15;99937.09;5067765;28;20372;-86
2021/11/02 00:15:08;;;;;;;0.30;0.30;;;;;;;9.46;68.37;99936.13;5062286;28;20040;-86
2021/11/02 00:17:39;;;;;;;0.10;0.10;;;;;;;9.46;68.34;99935.25;5069281;28;20879;-86
2021/11/02 00:20:13;;;;;;;0.20;0.20;;;;;;;9.47;67.99;99931.69;5063623;28;20037;-86
2021/11/02 00:23:02;;;;;;;0.10;0.10;;;;;;;9.55;68.12;99938.47;5067029;28;20486;-88
2021/11/02 00:25:30;;;;;;;0.13;0.13;;;;;;;9.44;68.72;99937.09;5061321;28;20041;-87
2021/11/02 00:28:00;;;;;;;0.10;0.10;;;;;;;9.48;68.44;99944.00;5070234;28;20055;-79
2021/11/02 00:30:27;;;;;;;0.10;0.10;;;;;;;9.45;68.51;99944.13;5069209;23;20053;-83
2021/11/02 00:32:55;;;;;;;0.10;0.10;;;;;;;9.44;68.51;99937.09;5008745;28;20104;-83
2021/11/02 00:35:24;;;;;;;0.10;0.10;;;;;;;9.45;68.17;99936.19;5011417;28;20092;-83
2021/11/02 00:37:50;;;;;;;0.38;0.38;;;;;;;9.44;68.04;99937.94;5012558;28;20052;-83
2021/11/02 00:40:18;;;;;;;0.10;0.10;;;;;;;9.19;69.06;99932.53;5027824;28;20033;-82
2021/11/02 00:43:02;;;;;;;0.32;0.32;;;;;;;9.04;69.38;99939.13;5012195;28;20465;-82
2021/11/02 00:45:30;;;;;;;0.10;0.10;;;;;;;9.01;70.00;99939.19;5011678;28;20080;-83
2021/11/02 00:47:58;;;;;;;0.30;0.30;;;;;;;9.00;69.95;99943.63;5012151;28;21395;-82
2021/11/02 00:50:25;;;;;;;0.10;0.10;;;;;;;8.99;69.71;99939.22;5012051;28;20108;-82
2021/11/02 00:52:52;;;;;;;0.30;0.30;;;;;;;8.97;70.05;99935.78;5012678;28;20030;-82
2021/11/02 00:55:18;;;;;;;0.10;0.10;;;;;;;8.98;70.59;99929.56;5009282;28;20022;-83
2021/11/02 00:57:45;;;;;;;1.25;0.80;;;;;;;8.99;70.36;99935.75;5012425;28;20038;-83
2021/11/02 01:00:13;;;;;;;0.10;0.10;;;;;;;9.05;70.17;99925.84;5012161;28;20025;-82
2021/11/02 01:02:40;;;;;;;1.65;0.75;;;;;;;9.03;70.24;99927.69;5012434;28;20041;-82
2021/11/02 01:05:09;;;;;;;0.10;0.10;;;;;;;9.10;69.89;99938.06;5011875;28;20045;-82
2021/11/02 01:07:35;;;;;;;0.10;0.10;;;;;;;9.11;70.01;99931.88;5011904;28;20026;-82
2021/11/02 01:10:03;;;;;;;0.10;0.10;;;;;;;9.12;70.09;99931.84;5011315;28;20044;-82
2021/11/02 01:12:29;;;;;;;0.20;0.20;;;;;;;9.11;69.77;99931.88;5010660;28;20515;-82
2021/11/02 01:14:55;;;;;;;0.10;0.10;;;;;;;9.13;69.88;99927.41;5011080;28;20037;-82
2021/11/02 01:17:21;;;;;;;0.52;0.52;;;;;;;9.13;70.11;99927.41;5012449;28;20088;-82
2021/11/02 01:19:47;;;;;;;0.10;0.10;;;;;;;9.12;70.22;99928.31;5010325;28;20499;-82
2021/11/02 01:22:20;;;;;;;0.25;0.25;;;;;;;9.19;69.84;99929.88;5010864;28;20084;-82
2021/11/02 01:24:48;;;;;;;0.10;0.10;;;;;;;9.33;69.20;99930.34;5010896;28;20021;-83
2021/11/02 01:27:15;;;;;;;0.52;0.35;;;;;;;9.47;68.73;99931.69;5013266;28;20033;-83
2021/11/02 01:29:41;;;;;;;0.13;0.13;;;;;;;9.52;68.57;99940.34;5012197;28;20609;-82
2021/11/02 01:32:08;;;;;;;0.10;0.10;;;;;;;9.54;68.20;99938.53;5010971;28;20036;-83
2021/11/02 01:34:35;;;;;;;0.10;0.10;;;;;;;9.53;68.52;99937.69;5011579;28;20041;-82
2021/11/02 01:37:02;;;;;;;0.60;0.60;;;;;;;9.52;68.15;99935.06;5011419;28;20088;-82
2021/11/02 01:39:33;;;;;;;0.10;0.10;;;;;;;9.52;68.12;99945.63;5011467;28;20052;-83
2021/11/02 01:42:01;;;;;;;0.10;0.10;;;;;;;9.52;67.90;99940.34;5008082;28;20037;-83
2021/11/02 01:44:27;;;;;;;0.10;0.10;;;;;;;9.52;68.00;99945.63;5011321;28;20026;-82
2021/11/02 01:46:54;;;;;;;0.10;0.10;;;;;;;9.50;68.01;99940.41;5011514;28;20500;-82
2021/11/02 01:49:20;;;;;;;0.20;0.20;;;;;;;9.49;68.06;99937.81;5011347;28;20057;-81
2021/11/02 01:51:47;;;;;;;0.10;0.10;;;;;;;9.45;67.63;99934.41;5011304;28;20887;-82
2021/11/02 01:54:13;;;;;;;0.10;0.10;;;;;;;9.44;67.47;99927.38;5011145;28;20168;-82
2021/11/02 01:56:41;;;;;;;0.10;0.10;;;;;;;9.44;67.39;99931.81;5007892;28;20026;-82
2021/11/02 01:59:08;;;;;;;0.55;0.55;;;;;;;9.39;67.89;99931.94;5010861;28;20022;-81
2021/11/02 02:01:51;;;;;;;0.10;0.10;;;;;;;9.43;67.71;99927.41;5011882;28;20038;-82
2021/11/02 02:07:29;;;;;;;0.10;0.10;;;;;;;9.35;67.28;99928.50;5093926;27;20340;-82
2021/11/02 02:10:26;;;;;;;0.10;0.10;;;;;;;9.27;68.32;99919.97;5089143;28;20055;-83
2021/11/02 02:19:25;;;;;;;0.28;0.28;;;;;;;9.25;68.36;99929.69;5056820;28;20396;-84
2021/11/02 02:30:19;;;;;;;0.10;0.10;;;;;;;9.15;68.02;99920.31;5065405;28;20428;-82
2021/11/02 02:32:49;;;;;;;0.10;0.10;;;;;;;9.14;68.41;99921.22;5046118;28;20108;-82
2021/11/02 02:35:18;;;;;;;0.10;0.10;;;;;;;9.14;68.26;99913.28;5047197;28;20075;-83
2021/11/02 02:37:47;;;;;;;0.10;0.10;;;;;;;9.09;68.05;99910.78;5047135;28;20108;-83
2021/11/02 02:40:14;;;;;;;0.10;0.10;;;;;;;9.09;68.35;99910.78;5046553;28;20041;-82
2021/11/02 02:42:43;;;;;;;0.63;0.63;;;;;;;9.04;68.37;99905.63;5043744;28;20039;-82
2021/11/02 02:45:13;;;;;;;0.10;0.10;;;;;;;9.11;68.22;99902.78;5046945;28;20137;-83
2021/11/02 02:47:42;;;;;;;0.10;0.10;;;;;;;9.08;68.63;99898.47;5044800;28;20083;-83
2021/11/02 02:50:09;;;;;;;0.10;0.10;;;;;;;9.10;68.74;99901.94;5046048;28;20037;-83
2021/11/02 02:52:37;;;;;;;0.10;0.10;;;;;;;9.12;68.89;99893.97;5046936;28;20491;-82
2021/11/02 02:55:05;;;;;;;0.15;0.15;;;;;;;9.12;68.83;99894.84;5046957;28;20048;-83
2021/11/02 02:57:45;;;;;;;0.10;0.10;;;;;;;9.18;68.46;99888.50;5042546;28;20506;-83
2021/11/02 03:00:12;;;;;;;0.10;0.10;;;;;;;9.18;68.62;99896.44;5038362;28;20116;-82
2021/11/02 03:02:42;;;;;;;0.10;0.10;;;;;;;9.17;68.64;99887.66;5044327;28;20031;-82
2021/11/02 03:05:09;;;;;;;0.28;0.28;;;;;;;9.13;68.72;99887.78;5041492;28;20084;-83
2021/11/02 03:07:37;;;;;;;0.10;0.10;;;;;;;9.12;68.22;99883.41;5045478;28;20067;-83
2021/11/02 03:10:15;;;;;;;0.50;0.50;;;;;;;9.11;68.54;99892.22;5047329;28;20124;-82
2021/11/02 03:12:47;;;;;;;0.10;0.10;;;;;;;9.11;68.66;99877.25;5045820;28;20068;-83
2021/11/02 03:18:42;;;;;;;0.10;0.10;;;;;;;9.09;68.46;99883.50;5069278;28;20399;-82
2021/11/02 03:50:17;;;;;;;0.10;0.10;;;;;;;8.97;69.12;99905.84;5069509;28;20072;-83
2021/11/02 03:55:08;;;;;;;0.10;0.10;;;;;;;8.97;69.11;99919.94;5048572;28;20041;-84
2021/11/02 03:57:59;;;;;;;0.10;0.10;;;;;;;8.96;69.10;99915.56;5050386;28;20025;-84
2021/11/02 04:00:46;;;;;;;0.10;0.10;;;;;;;8.94;69.18;99909.44;5047290;28;20097;-83
2021/11/02 04:23:25;;;;;;;0.10;0.10;;;;;;;8.96;69.04;99917.31;5048747;28;20067;-83
2021/11/02 05:13:06;;;;;;;0.13;0.13;;;;;;;8.78;68.71;99922.19;5072439;28;20410;-83
2021/11/02 05:46:51;;;;;;;0.22;0.22;;;;;;;8.66;68.92;99931.34;5065207;28;20486;-83
2021/11/02 05:49:08;;;;;;;0.22;0.22;;;;;;;8.70;69.29;99929.50;5070305;28;20025;-83
2021/11/02 05:51:56;;;;;;;0.10;0.10;;;;;;;8.71;69.32;99926.78;5060240;28;20047;-82
2021/11/02 05:59:59;;;;;;;0.10;0.10;;;;;;;8.88;69.23;99923.69;5067267;28;20878;-82
2021/11/02 06:02:41;;;;;;;0.20;0.20;;;;;;;8.94;69.08;99925.28;5043185;28;20048;-82
2021/11/02 06:05:29;;;;;;;0.15;0.15;;;;;;;9.01;68.96;99929.50;5048387;28;20029;-82
2021/11/02 06:28:07;;;;;;;0.30;0.30;;;;;;;9.50;69.51;99939.56;5050569;28;20033;-82
2021/11/02 06:33:50;;;;;;;0.30;0.30;;;;;;;9.61;69.30;99939.22;5071731;28;20181;-82
2021/11/02 06:36:35;;;;;;;0.32;0.32;;;;;;;9.63;69.60;99942.69;5067568;28;20041;-83
2021/11/02 06:45:06;;;;;;;0.20;0.20;;;;;;;9.87;69.29;99946.38;5089293;28;20456;-82
2021/11/02 06:47:52;;;;;;;0.10;0.10;;;;;;;9.99;69.30;99943.31;5086801;28;20437;-82
2021/11/02 06:59:26;;;;;;;0.10;0.10;;;;;;;10.19;69.19;99947.09;5111815;27;20391;-83
2021/11/02 07:19:27;;;;;;;0.13;0.13;;;;;;;10.54;69.30;99953.00;5073733;27;20925;-83
2021/11/02 07:22:10;;;;;;;0.10;0.10;;;;;;;10.59;68.92;99948.44;5068928;28;20375;-83
2021/11/02 08:45:10;;;;;;;0.13;0.13;;;;;;;11.65;67.60;99953.41;5022912;28;20057;-84
2021/11/02 08:47:40;;;;;;;0.10;0.10;;;;;;;11.63;68.56;99956.13;5023511;28;20492;-83
2021/11/02 08:50:10;;;;;;;0.15;0.15;;;;;;;11.72;67.98;99960.22;5022591;28;20132;-87
2021/11/02 08:52:37;;;;;;;0.10;0.10;;;;;;;11.74;67.77;99955.72;5023689;28;20107;-87
2021/11/02 08:55:06;;;;;;;0.90;0.88;;;;;;;11.76;68.00;99958.31;5025635;28;20025;-89
2021/11/02 08:57:33;;;;;;;0.10;0.10;;;;;;;11.82;68.33;99958.06;5027146;28;20034;-87
2021/11/02 08:59:59;;;;;;;0.50;0.50;;;;;;;11.81;67.65;99959.00;5023686;28;20049;-88
2021/11/02 09:05:14;;;;;;;0.70;0.68;;;;;;;11.88;68.07;99955.19;5107671;27;20131;-88
2021/11/02 09:07:44;;;;;;;0.30;0.30;;;;;;;11.87;67.53;99964.06;5044439;28;1484629;-89
2021/11/02 09:10:13;;;;;;;3.20;1.55;;;;;;;11.92;69.15;99962.09;5056484;28;20033;-82
2021/11/02 09:12:43;;;;;;;0.85;0.73;;;;;;;11.70;70.64;99961.22;5052290;28;20075;-81
2021/11/02 09:15:10;;;;;;;1.52;1.15;;;;;;;11.74;70.94;99969.00;5067772;28;20028;-81
2021/11/02 09:17:43;;;;;;;2.65;1.25;;;;;;;11.84;69.58;99968.63;5068013;28;20468;-80
2021/11/02 09:20:09;;;;;;;0.30;0.30;;;;;;;11.77;68.98;99978.63;5064868;28;20033;-83
2021/11/02 09:22:36;;;;;;;0.20;0.20;;;;;;;11.79;68.52;99977.66;5065873;28;20033;-84
2021/11/02 09:25:03;;;;;;;0.10;0.10;;;;;;;11.76;68.58;99971.59;5060928;28;20044;-83
2021/11/02 09:27:29;;;;;;;0.80;0.80;;;;;;;11.78;68.04;99980.38;5065340;28;20060;-80
2021/11/02 09:29:58;;;;;;;0.10;0.10;;;;;;;11.77;68.82;99973.31;5048470;28;20112;-81
2021/11/02 09:32:25;;;;;;;1.33;1.10;;;;;;;12.11;67.40;99972.88;5037670;23;20052;-82
2021/11/02 09:34:53;;;;;;;0.28;0.28;;;;;;;12.22;67.68;99968.94;5028361;28;20033;-84
2021/11/02 09:37:36;;;;;;;0.08;0.08;;;;;;;12.22;67.48;99975.09;5029996;28;20026;-82
2021/11/02 09:40:36;;;;;;;0.15;0.15;;;;;;;12.35;67.26;99969.28;5027519;28;20116;-82
2021/11/02 09:46:31;;;;;;;0.20;0.10;;;;;;;12.00;67.74;99972.47;5113055;27;20358;-83
2021/11/02 09:49:23;;;;;;;0.52;0.52;;;;;;;11.94;68.58;99972.66;5103803;28;20036;-82
2021/11/02 09:52:19;;;;;;;0.15;0.15;;;;;;;12.16;67.70;99972.69;5109341;28;20032;-82
2021/11/02 09:58:32;;;;;;;0.20;0.20;;;;;;;12.43;66.80;99967.19;5071566;28;20471;-83
2021/11/02 10:01:07;;;;;;;0.20;0.20;;;;;;;12.32;67.06;99959.66;5067591;28;20601;-83
2021/11/02 10:06:49;;;;;;;0.10;0.10;;;;;;;12.39;66.87;99971.75;5058354;28;20427;-82
2021/11/02 10:12:17;;;;;;;0.10;0.10;;;;;;;12.13;67.83;99975.47;5069163;27;20413;-83
2021/11/02 10:18:11;;;;;;;0.10;0.10;;;;;;;12.49;67.39;99958.94;5148398;27;20127;-83
2021/11/02 10:21:01;;;;;;;0.15;0.15;;;;;;;12.55;67.78;99971.97;5154862;27;20405;-83
2021/11/02 10:23:47;;;;;;;0.10;0.10;;;;;;;12.57;67.13;99967.47;5141447;27;20062;-83
2021/11/02 10:29:28;;;;;;;0.65;0.65;;;;;;;12.60;66.95;99962.00;5060227;27;20432;-82
2021/11/02 10:32:15;;;;;;;0.10;0.10;;;;;;;12.61;66.57;99969.06;5046218;28;20388;-82
2021/11/02 10:45:53;;;;;;;0.40;0.40;;;;;;;12.59;67.56;99962.94;5100122;27;20428;-82
2021/11/02 10:48:29;;;;;;;0.10;0.10;;;;;;;12.57;66.82;99964.81;5098323;28;20086;-83
2021/11/02 10:51:04;;;;;;;0.38;0.38;;;;;;;12.59;67.13;99968.25;5093830;28;20387;-82
2021/11/02 10:53:38;;;;;;;0.60;0.60;;;;;;;12.66;67.16;99960.00;5092475;28;20429;-83
2021/11/02 10:56:11;;;;;;;0.20;0.20;;;;;;;12.60;67.67;99964.66;5083564;28;20028;-83
2021/11/02 10:58:47;;;;;;;0.10;0.10;;;;;;;12.62;67.98;99968.13;5077257;28;20383;-83
2021/11/02 11:01:13;;;;;;;0.60;0.60;;;;;;;12.62;67.62;99957.50;5087600;28;21390;-83
2021/11/02 11:03:41;;;;;;;0.80;0.80;;;;;;;12.64;67.51;99964.56;5100184;28;20036;-82
2021/11/02 11:06:11;;;;;;;0.75;0.75;;;;;;;12.67;67.93;99961.75;5086990;28;20089;-82
2021/11/02 11:08:39;;;;;;;0.10;0.10;;;;;;;12.69;67.59;99962.56;5089707;28;20069;-83
2021/11/02 11:11:09;;;;;;;0.10;0.10;;;;;;;12.67;67.67;99964.41;5094551;28;20123;-84
2021/11/02 11:13:37;;;;;;;0.10;0.10;;;;;;;12.66;67.11;99957.34;5082581;28;20074;-83
2021/11/02 11:16:09;;;;;;;2.17;0.90;;;;;;;12.70;67.07;99956.31;5086106;28;20063;-83
2021/11/02 11:21:36;;;;;;;0.38;0.38;;;;;;;12.66;67.74;99962.69;5069626;28;20158;-83
2021/11/02 11:24:15;;;;;;;0.10;0.10;;;;;;;12.68;67.43;99950.19;5058346;28;20079;-83
2021/11/02 11:26:47;;;;;;;0.63;0.63;;;;;;;12.79;67.83;99947.94;5053343;28;20383;-82
2021/11/02 11:29:18;;;;;;;0.10;0.10;;;;;;;12.88;68.19;99950.16;5058565;28;20112;-83
2021/11/02 11:31:47;;;;;;;0.30;0.30;;;;;;;12.90;67.63;99948.31;5056225;28;20125;-83
2021/11/02 11:34:15;;;;;;;0.38;0.38;;;;;;;12.97;67.88;99945.38;5059619;28;20052;-83
2021/11/02 11:36:48;;;;;;;0.10;0.10;;;;;;;13.03;67.48;99945.13;5064984;28;20488;-82
2021/11/02 11:39:18;;;;;;;0.20;0.20;;;;;;;13.08;67.40;99938.69;5060948;28;20043;-83
2021/11/02 11:41:50;;;;;;;0.10;0.10;;;;;;;13.10;67.10;99942.09;5061975;28;20041;-83
2021/11/02 11:44:18;;;;;;;0.43;0.43;;;;;;;13.11;66.54;99943.84;5053132;28;20056;-81
2021/11/02 11:46:48;;;;;;;0.88;0.88;;;;;;;13.16;66.50;99935.66;5065492;28;20499;-83
2021/11/02 11:49:30;;;;;;;0.30;0.30;;;;;;;13.21;66.16;99941.63;5068653;28;20086;-83
2021/11/02 11:51:58;;;;;;;0.10;0.10;;;;;;;13.20;66.48;99942.56;5069033;28;20025;-83
2021/11/02 11:54:45;;;;;;;0.10;0.10;;;;;;;13.31;66.91;99936.75;5056200;28;20033;-83
2021/11/02 11:57:15;;;;;;;0.10;0.10;;;;;;;13.27;66.69;99938.69;5060178;28;20053;-83
2021/11/02 11:59:45;;;;;;;0.05;0.05;;;;;;;13.33;66.86;99937.53;5060534;28;20055;-83
2021/11/02 12:02:27;;;;;;;0.10;0.10;;;;;;;13.40;66.59;99927.53;5060113;28;20053;-84
2021/11/02 12:04:59;;;;;;;0.20;0.20;;;;;;;13.47;67.08;99928.97;5055816;28;20087;-81
2021/11/02 12:07:51;;;;;;;0.10;0.10;;;;;;;13.51;66.15;99924.38;5059124;28;20029;-80
2021/11/02 12:10:22;;;;;;;0.22;0.22;;;;;;;13.49;65.71;99924.41;5067408;28;20075;-82
2021/11/02 12:12:50;;;;;;;0.45;0.45;;;;;;;13.49;66.19;99928.88;5066432;28;20426;-82
2021/11/02 12:15:17;;;;;;;0.10;0.10;;;;;;;13.50;65.35;99918.16;5052898;28;20096;-82
2021/11/02 12:17:49;;;;;;;0.10;0.10;;;;;;;13.51;65.16;99921.72;5056625;28;20052;-82
2021/11/02 12:20:16;;;;;;;4.97;1.48;;;;;;;13.54;65.24;99918.88;5055688;28;20124;-81
2021/11/02 12:25:31;;;;;;;0.30;0.30;;;;;;;13.61;64.69;99925.66;5082935;27;20888;-81
2021/11/02 12:27:59;;;;;;;0.20;0.20;;;;;;;13.73;64.88;99924.19;5064213;28;20021;-81
2021/11/02 12:30:26;;;;;;;0.10;0.10;;;;;;;13.82;64.63;99923.75;5063925;28;20028;-80
2021/11/02 12:32:57;;;;;;;0.20;0.20;;;;;;;13.88;64.63;99920.81;5045853;28;20033;-81
2021/11/02 12:35:46;;;;;;;0.10;0.10;;;;;;;14.05;63.97;99919.97;5044282;28;20045;-81
2021/11/02 12:38:12;;;;;;;0.10;0.10;;;;;;;14.03;64.50;99916.53;5034656;28;20034;-80
2021/11/02 12:40:41;;;;;;;0.20;0.20;;;;;;;14.06;64.27;99916.38;5034141;28;20033;-86
2021/11/02 12:43:29;;;;;;;1.38;1.27;;;;;;;14.12;62.46;99919.66;5046287;28;20025;-82
2021/11/02 12:45:58;;;;;;;0.10;0.10;;;;;;;14.10;62.79;99919.75;5044317;28;20033;-82
2021/11/02 12:48:26;;;;;;;0.10;0.10;;;;;;;14.16;63.35;99919.44;5045404;28;20028;-82
2021/11/02 12:50:53;;;;;;;0.10;0.10;;;;;;;14.20;63.49;99917.47;5048065;28;20029;-81
2021/11/02 12:53:20;;;;;;;0.85;0.85;;;;;;;14.20;62.97;99913.00;5047948;28;20108;-82
2021/11/02 12:55:46;;;;;;;0.10;0.10;;;;;;;14.16;62.87;99910.59;5044052;28;20059;-82
2021/11/02 13:00:58;;;;;;;0.20;0.20;;;;;;;14.08;62.13;99913.63;5106964;27;20399;-82
2021/11/02 13:03:27;;;;;;;0.10;0.10;;;;;;;13.98;62.04;99923.00;5094083;28;20028;-82
2021/11/02 13:06:00;;;;;;;0.10;0.10;;;;;;;13.90;61.95;99916.25;5093626;28;20036;-83
2021/11/02 13:11:18;;;;;;;0.10;0.10;;;;;;;13.77;63.45;99919.59;5054238;27;20457;-82
2021/11/02 13:14:11;;;;;;;0.10;0.10;;;;;;;13.66;62.75;99917.47;5053602;28;20033;-83
2021/11/02 13:17:00;;;;;;;0.40;0.40;;;;;;;13.62;63.86;99921.19;5068792;28;20064;-83
2021/11/02 13:19:44;;;;;;;0.40;0.40;;;;;;;13.51;63.53;99919.91;5069049;28;20035;-82
2021/11/02 13:25:12;;;;;;;0.10;0.10;;;;;;;13.22;64.11;99926.53;5071723;27;20415;-83
2021/11/02 13:27:40;;;;;;;0.10;0.10;;;;;;;13.04;64.59;99928.25;5069511;28;20029;-83
2021/11/02 13:30:27;;;;;;;0.10;0.10;;;;;;;13.00;64.62;99929.31;5055667;28;20033;-83
2021/11/02 13:33:13;;;;;;;0.10;0.10;;;;;;;12.85;64.33;99931.72;5039805;28;20449;-83
2021/11/02 13:35:56;;;;;;;0.17;0.17;;;;;;;12.73;65.03;99933.09;5047428;28;20048;-82
2021/11/02 13:44:00;;;;;;;0.10;0.10;;;;;;;12.61;65.53;99933.63;5072538;27;20427;-82
2021/11/02 13:46:29;;;;;;;0.95;0.95;;;;;;;12.58;65.00;99939.09;5058109;28;20108;-83
2021/11/02 13:48:56;;;;;;;0.00;0.00;;;;;;;12.59;64.60;99943.47;5057028;28;20463;-82
2021/11/02 13:51:24;;;;;;;0.10;0.10;;;;;;;12.61;64.76;99936.28;5056704;28;20447;-82
2021/11/02 13:53:51;;;;;;;0.00;0.00;;;;;;;12.64;64.90;99932.66;5047762;28;20021;-82
2021/11/02 13:59:05;;;;;;;0.20;0.20;;;;;;;12.83;65.04;99938.03;5071197;27;20390;-84
2021/11/02 14:01:49;;;;;;;0.10;0.10;;;;;;;12.98;64.10;99936.50;5059155;28;20119;-82
2021/11/02 14:12:38;;;;;;;0.10;0.10;;;;;;;13.38;63.36;99940.03;5057116;28;20430;-83
2021/11/02 14:23:36;;;;;;;0.57;0.57;;;;;;;13.49;62.19;99959.00;5070153;27;20440;-84
2021/11/02 14:26:25;;;;;;;;;;;;;;;13.59;61.85;99951.47;5054949;28;20048;-83
2021/11/02 14:28:55;;;;;;;0.10;0.10;;;;;;;13.53;62.66;99955.28;5052735;28;20008;-82
2021/11/02 14:37:21;;;;;;;0.10;0.10;;;;;;;13.37;62.04;99960.47;5099023;27;20400;-82
2021/11/02 14:40:08;;;;;;;0.10;0.10;;;;;;;13.43;61.24;99968.16;5096070;28;20666;-84
2021/11/02 14:42:45;;;;;;;0.30;0.30;;;;;;;13.44;60.76;99971.66;5083576;28;20116;-84
2021/11/02 14:45:13;;;;;;;0.10;0.10;;;;;;;13.24;59.76;99976.06;5090390;28;20075;-84
2021/11/02 14:47:40;;;;;;;0.10;0.10;;;;;;;13.25;60.37;99982.25;5102925;28;20020;-84
2021/11/02 15:04:19;;;;;;;2.28;0.73;;;;;;;13.05;60.10;99986.66;5081041;28;20947;-84
2021/11/02 15:06:53;;;;;;;0.10;0.10;;;;;;;12.99;59.92;99991.41;5069837;28;20068;-83
2021/11/02 15:09:21;;;;;;;0.10;0.10;;;;;;;12.85;59.88;99995.50;5069786;28;20502;-83
2021/11/02 15:11:50;;;;;;;0.10;0.10;;;;;;;12.83;60.20;99992.06;5057169;28;20025;-83
2021/11/02 15:14:19;;;;;;;0.10;0.10;;;;;;;12.87;60.20;99995.44;5049908;28;20041;-83
2021/11/02 15:16:49;;;;;;;0.10;0.10;;;;;;;12.92;60.93;99996.09;5049843;28;20096;-83
2021/11/02 15:19:16;;;;;;;0.10;0.10;;;;;;;12.88;60.50;99999.84;5049977;28;20423;-83
2021/11/02 15:21:52;;;;;;;0.10;0.10;;;;;;;12.92;60.78;100007.63;5049417;28;20083;-83
2021/11/02 15:24:22;;;;;;;0.20;0.20;;;;;;;12.86;61.01;100007.88;5049349;28;20026;-83
2021/11/02 15:26:53;;;;;;;0.20;0.20;;;;;;;12.83;61.87;100005.34;5049296;28;20530;-83
2021/11/02 15:29:22;;;;;;;0.10;0.10;;;;;;;12.70;61.73;100007.66;5045622;28;20079;-81
2021/11/02 15:31:57;;;;;;;0.20;0.20;;;;;;;12.65;62.23;100014.97;5049656;28;20086;-83
2021/11/02 15:34:31;;;;;;;0.10;0.10;;;;;;;12.51;62.18;100017.31;5037373;28;20056;-83
2021/11/02 15:37:17;;;;;;;0.10;0.10;;;;;;;12.46;62.32;100020.16;5041454;28;20476;-84
2021/11/02 15:39:45;;;;;;;0.17;0.17;;;;;;;12.41;62.41;100020.38;5049140;28;20021;-84
2021/11/02 15:42:40;;;;;;;0.10;0.10;;;;;;;12.45;62.48;100024.63;5048979;28;20035;-84
2021/11/02 15:47:53;;;;;;;0.10;0.10;;;;;;;12.26;63.75;100029.84;5068889;28;20463;-84
2021/11/02 15:50:23;;;;;;;0.10;0.10;;;;;;;12.28;64.07;100035.94;5062444;28;20050;-84
2021/11/02 15:52:50;;;;;;;0.10;0.10;;;;;;;12.26;63.18;100040.47;5052443;28;20170;-84
2021/11/02 15:55:24;;;;;;;0.10;0.10;;;;;;;12.30;63.37;100036.75;5053224;28;20026;-83
2021/11/02 15:57:54;;;;;;;0.10;0.10;;;;;;;12.28;63.91;100033.28;5053108;28;20021;-83
2021/11/02 16:00:26;;;;;;;0.10;0.10;;;;;;;12.35;63.30;100041.00;5051429;28;20026;-84
2021/11/02 16:02:53;;;;;;;0.17;0.17;;;;;;;12.30;63.47;100039.41;5053268;28;20516;-84
2021/11/02 16:05:24;;;;;;;0.10;0.10;;;;;;;12.29;63.43;100040.31;5061774;28;20434;-84
2021/11/02 16:07:56;;;;;;;0.10;0.10;;;;;;;12.28;63.84;100038.59;5058281;28;20363;-82
2021/11/02 16:10:26;;;;;;;0.20;0.20;;;;;;;12.28;63.79;100043.91;5049045;28;20480;-85
2021/11/02 16:12:53;;;;;;;0.20;0.20;;;;;;;12.28;63.95;100043.91;5046820;28;20534;-85
2021/11/02 16:15:23;;;;;;;0.10;0.10;;;;;;;12.29;64.12;100040.31;5049366;28;20040;-86
2021/11/02 16:17:51;;;;;;;0.10;0.10;;;;;;;12.28;64.27;100043.91;5049410;28;20460;-85
2021/11/02 16:20:27;;;;;;;0.38;0.38;;;;;;;12.30;64.49;100044.72;5052183;28;20021;-82
2021/11/02 16:23:01;;;;;;;0.10;0.10;;;;;;;12.35;64.63;100047.19;5058430;28;20106;-84
2021/11/02 16:25:29;;;;;;;0.10;0.10;;;;;;;12.35;64.38;100048.97;5051197;28;20041;-83
2021/11/02 16:28:06;;;;;;;0.10;0.10;;;;;;;12.38;65.04;100051.50;5049309;28;20082;-84
2021/11/02 16:30:41;;;;;;;0.25;0.25;;;;;;;12.39;65.61;100046.13;5051895;28;20037;-83
2021/11/02 16:33:11;;;;;;;0.10;0.10;;;;;;;12.41;65.24;100038.09;5049195;28;20033;-83
2021/11/02 16:35:41;;;;;;;0.10;0.10;;;;;;;12.40;65.03;100036.34;5048491;28;20025;-84
2021/11/02 16:41:21;;;;;;;0.00;0.00;;;;;;;12.44;66.16;100044.16;5055638;27;20428;-83
2021/11/02 16:43:50;;;;;;;0.10;0.10;;;;;;;12.37;65.97;100049.78;5044574;28;20048;-83
2021/11/02 16:49:11;;;;;;;0.20;0.20;;;;;;;12.40;66.10;100046.97;5068109;28;20935;-82
2021/11/02 16:51:46;;;;;;;0.10;0.10;;;;;;;12.43;66.30;100057.50;5056330;28;20032;-82
2021/11/02 16:54:14;;;;;;;0.10;0.10;;;;;;;12.41;66.55;100060.22;5066707;28;20048;-83
2021/11/02 16:57:05;;;;;;;0.10;0.10;;;;;;;12.47;65.97;100064.41;5068307;28;20025;-82
2021/11/02 17:05:26;;;;;;;0.10;0.10;;;;;;;12.47;66.28;100056.44;5071364;27;20414;-83
2021/11/02 17:08:05;;;;;;;0.20;0.20;;;;;;;12.44;66.45;100054.78;5051908;28;20048;-83
2021/11/02 17:10:35;;;;;;;0.10;0.10;;;;;;;12.38;66.49;100059.47;5061144;28;20103;-82
2021/11/02 17:13:07;;;;;;;0.10;0.10;;;;;;;12.39;66.05;100066.53;5046999;28;20032;-82
2021/11/02 17:16:06;;;;;;;0.00;0.00;;;;;;;12.44;66.24;100062.75;5047055;28;20491;-83
2021/11/02 17:18:52;;;;;;;0.10;0.10;;;;;;;12.44;66.64;100069.88;5046159;28;20040;-83
2021/11/02 17:21:21;;;;;;;0.10;0.10;;;;;;;12.40;66.44;100069.13;5048849;28;20425;-82
2021/11/02 17:23:48;;;;;;;0.22;0.22;;;;;;;12.39;66.07;100078.00;5046859;28;20045;-82
2021/11/02 17:26:16;;;;;;;0.10;0.10;;;;;;;12.31;66.17;100096.03;5047931;28;20031;-82
2021/11/02 17:28:45;;;;;;;0.10;0.10;;;;;;;12.05;64.39;100115.63;5048884;28;20017;-82
2021/11/02 17:31:12;;;;;;;0.10;0.10;;;;;;;11.93;64.07;100120.44;5048399;28;20029;-82
2021/11/02 17:33:41;;;;;;;0.73;0.73;;;;;;;11.79;63.20;100105.03;5040966;28;20029;-83
2021/11/02 17:36:11;;;;;;;0.10;0.10;;;;;;;11.75;63.67;100094.59;5048171;28;20029;-84
2021/11/02 17:38:40;;;;;;;0.10;0.10;;;;;;;11.55;63.67;100106.81;5047788;28;20120;-83
2021/11/02 17:41:08;;;;;;;0.10;0.10;;;;;;;11.47;64.38;100111.50;5044387;28;20057;-85
2021/11/02 17:43:37;;;;;;;0.10;0.10;;;;;;;11.40;64.71;100117.94;5047864;28;20037;-85
2021/11/02 17:46:05;;;;;;;0.10;0.10;;;;;;;11.33;64.86;100115.50;5048176;28;20018;-86
2021/11/02 17:48:32;;;;;;;0.10;0.10;;;;;;;11.28;65.32;100113.97;5045960;28;20048;-83
2021/11/02 17:50:58;;;;;;;0.10;0.10;;;;;;;11.27;65.30;100128.97;5041628;28;20022;-82
2021/11/02 17:53:25;;;;;;;0.10;0.10;;;;;;;11.28;65.80;100130.72;5040611;28;20443;-84
2021/11/02 17:55:53;;;;;;;0.10;0.10;;;;;;;11.29;66.11;100131.56;5043408;28;20033;-83
2021/11/02 17:58:22;;;;;;;2.00;0.90;;;;;;;11.20;66.58;100122.16;5038029;28;20018;-85
2021/11/02 18:00:51;;;;;;;0.10;0.10;;;;;;;11.21;65.78;100118.59;5042566;28;20160;-91
2021/11/02 18:03:18;;;;;;;0.10;0.10;;;;;;;11.19;66.39;100119.56;5043823;28;20392;-87
2021/11/02 18:05:48;;;;;;;0.10;0.10;;;;;;;11.14;66.80;100107.34;5046649;28;20025;-86
2021/11/02 18:08:14;;;;;;;0.10;0.10;;;;;;;11.14;66.45;100109.09;5046531;28;20037;-86
2021/11/02 18:10:50;;;;;;;0.10;0.10;;;;;;;11.12;66.70;100114.47;5046439;28;20531;-87
2021/11/02 18:13:18;;;;;;;0.10;0.10;;;;;;;11.11;67.32;100106.56;5047018;28;20029;-87
2021/11/02 18:15:44;;;;;;;0.15;0.15;;;;;;;11.06;66.87;100116.47;5036875;28;20037;-88
2021/11/02 18:18:11;;;;;;;0.10;0.10;;;;;;;11.04;66.72;100118.28;5033171;28;20026;-89
2021/11/02 18:20:38;;;;;;;0.10;0.10;;;;;;;11.00;66.97;100122.81;5034159;28;20079;-88
2021/11/02 18:23:05;;;;;;;0.10;0.10;;;;;;;10.96;66.85;100124.72;5025411;28;20473;-87
2021/11/02 18:25:31;;;;;;;0.10;0.10;;;;;;;10.96;66.84;100116.75;5033760;28;20052;-85
2021/11/02 18:27:58;;;;;;;0.15;0.15;;;;;;;10.99;67.02;100124.63;5033240;28;20030;-86
2021/11/02 18:30:32;;;;;;;0.32;0.32;;;;;;;11.06;67.49;100124.41;5034570;28;20036;-87
2021/11/02 18:32:59;;;;;;;0.10;0.10;;;;;;;11.02;67.35;100131.59;5033878;28;20038;-85
2021/11/02 18:35:26;;;;;;;0.10;0.10;;;;;;;11.04;67.33;100139.50;5020835;28;20025;-84